Vernonia, Oregon
Current Conditions -  °F | °C
As of 10:53 AM on Monday 20 Oct 2014 (Local Time) from KSPB Reporting Station
Overcast Overcast  
Wind Chill: 59°   Ceiling: 1500
Heat Index: 59°   Visibility: 10mi
Dew Point: 56°   Wind: 5mph
Humidity: 90%   Direction: 180°S
Pressure: 29.78"   Gusts: NA
Location:  45.86°N, 123.19°W
Report Text: KSPB 201753Z AUTO 18004KT 10SM SCT010 BKN015 OVC040 15/13 A2978 RMK AO2 RAE26 SLP083 P0000 60003 T01500133 10156 20139 51011
Loading
Personal Weather Stations






























Interactive Weather Map
Tropical Storm Tracking
New forecast layout! Learn more

10-Day Weather Forecast

Advertisements
Track Severe Weather on mobile